createdAt,value
2022-08-18T00:02:28.912Z,23.27
2022-08-18T00:10:07.992Z,23.22
2022-08-18T00:17:53.844Z,23.17
2022-08-18T00:25:27.858Z,23.08
2022-08-18T00:33:03.044Z,23.01
2022-08-18T00:40:40.778Z,22.98
2022-08-18T00:48:16.419Z,22.97
2022-08-18T00:55:54.126Z,22.88
2022-08-18T01:03:31.159Z,22.82
2022-08-18T01:11:04.991Z,22.77
2022-08-18T01:18:57.801Z,22.69
2022-08-18T01:26:36.877Z,22.64
2022-08-18T01:34:21.479Z,22.65
2022-08-18T01:41:56.846Z,22.71
2022-08-18T01:49:30.750Z,22.71
2022-08-18T01:57:06.134Z,22.66
2022-08-18T02:04:40.231Z,22.56
2022-08-18T02:12:15.413Z,22.45
2022-08-18T02:19:49.444Z,22.34
2022-08-18T02:27:24.720Z,22.24
2022-08-18T02:34:58.536Z,22.11
2022-08-18T02:42:34.464Z,22.00
2022-08-18T02:50:10.917Z,21.89
2022-08-18T02:57:48.916Z,21.85
2022-08-18T03:05:22.851Z,21.78
2022-08-18T03:12:58.130Z,21.71
2022-08-18T03:20:31.902Z,21.61
2022-08-18T03:28:07.399Z,21.48
2022-08-18T03:35:42.026Z,21.37
2022-08-18T03:43:23.781Z,21.31
2022-08-18T03:51:14.812Z,21.23
2022-08-18T03:58:55.540Z,21.17
2022-08-18T04:06:31.888Z,21.08
2022-08-18T04:14:07.345Z,21.01
2022-08-18T04:21:43.621Z,20.96
2022-08-18T04:29:21.777Z,20.97
2022-08-18T04:36:55.690Z,20.96
2022-08-18T04:44:31.900Z,21.01
2022-08-18T04:52:39.314Z,21.01
2022-08-18T05:00:17.362Z,21.05
2022-08-18T05:07:51.222Z,21.07
2022-08-18T05:15:26.588Z,21.10
2022-08-18T05:23:00.405Z,21.11
2022-08-18T05:30:36.965Z,21.14
2022-08-18T05:38:27.999Z,21.19
2022-08-18T05:46:06.763Z,21.27
2022-08-18T05:54:02.608Z,21.39
2022-08-18T06:01:47.307Z,21.58
2022-08-18T06:09:25.049Z,21.81
2022-08-18T06:17:09.567Z,21.96
2022-08-18T06:24:48.035Z,22.09
2022-08-18T06:32:36.188Z,22.24
2022-08-18T06:40:10.696Z,22.35
2022-08-18T06:47:53.839Z,22.53
2022-08-18T06:55:34.836Z,22.66
2022-08-18T07:03:15.103Z,22.83
2022-08-18T07:10:51.478Z,22.99
2022-08-18T07:18:29.963Z,23.12
2022-08-18T07:26:08.859Z,23.26
2022-08-18T07:33:52.386Z,23.40
2022-08-18T07:41:31.681Z,23.50
2022-08-18T07:49:07.791Z,23.64
2022-08-18T07:56:51.444Z,23.80
2022-08-18T08:04:37.075Z,23.94
2022-08-18T08:12:24.404Z,24.10
2022-08-18T08:20:11.887Z,24.24
2022-08-18T08:27:57.220Z,24.38
2022-08-18T08:35:49.706Z,24.53
2022-08-18T08:43:31.896Z,24.70
2022-08-18T08:51:19.686Z,24.88
2022-08-18T08:59:00.427Z,25.09
2022-08-18T09:06:45.501Z,25.39
2022-08-18T09:14:48.747Z,25.88
2022-08-18T09:22:38.140Z,26.06
2022-08-18T09:30:42.134Z,26.33
2022-08-18T09:38:41.287Z,26.72
2022-08-18T09:46:55.872Z,26.91
2022-08-18T09:54:31.868Z,27.23
2022-08-18T10:02:18.752Z,27.37
2022-08-18T10:11:01.788Z,27.67
2022-08-18T10:18:34.893Z,28.02
2022-08-18T10:27:09.417Z,28.09
2022-08-18T10:34:51.978Z,28.23
2022-08-18T10:50:30.415Z,28.70
2022-08-18T10:58:19.021Z,28.93
2022-08-18T11:06:04.863Z,29.01
2022-08-18T11:13:44.990Z,29.42
2022-08-18T11:21:33.284Z,29.80
2022-08-18T11:29:22.212Z,29.84
2022-08-18T11:36:59.880Z,29.90
2022-08-18T11:44:36.357Z,30.01
2022-08-18T12:00:42.719Z,30.23
2022-08-18T12:08:50.966Z,30.24
2022-08-18T12:16:32.887Z,30.36
2022-08-18T12:24:14.601Z,30.46
2022-08-18T12:31:51.426Z,30.54
2022-08-18T12:39:26.735Z,30.77
2022-08-18T12:47:02.477Z,30.90
2022-08-18T12:54:39.207Z,30.84
2022-08-18T13:02:29.568Z,30.93
2022-08-18T13:10:05.255Z,31.18
2022-08-18T13:17:41.535Z,31.23
2022-08-18T13:25:32.462Z,31.31
2022-08-18T13:33:35.181Z,31.45
2022-08-18T13:41:08.575Z,31.61
2022-08-18T13:48:42.699Z,31.55
2022-08-18T13:56:20.611Z,31.59
2022-08-18T14:04:05.647Z,31.53
2022-08-18T14:11:51.226Z,31.54
2022-08-18T14:19:42.375Z,31.84
2022-08-18T14:27:18.785Z,31.87
2022-08-18T14:34:53.409Z,31.90
2022-08-18T14:42:41.728Z,31.93
2022-08-18T14:50:29.577Z,31.94
2022-08-18T14:58:07.270Z,31.75
2022-08-18T15:05:42.437Z,31.55
2022-08-18T15:13:17.869Z,31.41
2022-08-18T15:21:19.393Z,31.26
2022-08-18T15:29:09.801Z,31.12
2022-08-18T15:36:43.702Z,31.00
2022-08-18T15:44:21.680Z,30.89
2022-08-18T15:51:55.618Z,30.82
2022-08-18T15:59:34.122Z,30.74
2022-08-18T16:07:25.051Z,30.63
2022-08-18T16:22:53.214Z,30.42
2022-08-18T16:30:29.979Z,30.20
2022-08-18T16:38:06.293Z,30.08
2022-08-18T16:45:42.893Z,29.89
2022-08-18T16:53:17.149Z,29.52
2022-08-18T17:01:12.638Z,28.90
2022-08-18T17:08:52.639Z,28.53
2022-08-18T17:16:30.426Z,28.10
2022-08-18T17:24:08.020Z,27.60
2022-08-18T17:31:51.184Z,27.19
2022-08-18T17:39:29.384Z,26.97
2022-08-18T17:47:07.028Z,26.72
2022-08-18T17:54:45.940Z,26.49
2022-08-18T18:02:29.207Z,26.28
2022-08-18T18:10:06.811Z,25.90
2022-08-18T18:17:43.866Z,25.90
2022-08-18T18:25:34.508Z,25.72
2022-08-18T18:33:17.133Z,25.56
2022-08-18T18:40:57.546Z,25.41
2022-08-18T18:48:51.557Z,25.11
2022-08-18T18:56:31.983Z,25.16
2022-08-18T19:04:15.183Z,25.08
2022-08-18T19:12:03.477Z,25.03
2022-08-18T19:19:43.987Z,24.99
2022-08-18T19:27:34.177Z,24.84
2022-08-18T19:35:14.292Z,24.72
2022-08-18T19:42:55.504Z,24.55
2022-08-18T19:50:36.205Z,24.57
2022-08-18T19:58:36.510Z,24.50
2022-08-18T20:06:34.114Z,24.41
2022-08-18T20:14:12.505Z,24.46
2022-08-18T20:21:49.341Z,24.40
2022-08-18T20:29:42.788Z,24.30
2022-08-18T20:37:27.186Z,24.13
2022-08-18T20:45:11.448Z,23.81
2022-08-18T20:52:58.015Z,23.44
2022-08-18T21:00:36.147Z,23.23
2022-08-18T21:08:27.271Z,23.12
2022-08-18T21:16:01.077Z,22.99
2022-08-18T21:23:38.195Z,22.98
2022-08-18T21:31:41.986Z,23.02
2022-08-18T21:39:21.203Z,22.96
2022-08-18T21:47:05.793Z,22.88
2022-08-18T21:54:41.585Z,22.65
2022-08-18T22:02:21.874Z,22.62
2022-08-18T22:10:20.100Z,22.59
2022-08-18T22:17:57.986Z,22.51
2022-08-18T22:25:33.410Z,22.32
2022-08-18T22:33:07.160Z,22.30
2022-08-18T22:40:44.693Z,22.32
2022-08-18T22:48:18.766Z,22.30
2022-08-18T22:55:54.240Z,22.20
2022-08-18T23:03:29.984Z,22.18
2022-08-18T23:11:07.096Z,22.17
2022-08-18T23:18:40.985Z,21.96
2022-08-18T23:26:16.127Z,21.85
2022-08-18T23:33:57.014Z,21.71
2022-08-18T23:41:32.283Z,21.73
2022-08-18T23:49:10.780Z,21.41
2022-08-18T23:56:47.266Z,21.42
